createdAt,value
2023-03-20T00:00:32.842Z,7.03
2023-03-20T00:03:02.369Z,6.90
2023-03-20T00:05:35.206Z,6.47
2023-03-20T00:08:08.857Z,6.20
2023-03-20T00:10:39.949Z,7.20
2023-03-20T00:13:14.857Z,7.70
2023-03-20T00:15:43.853Z,7.90
2023-03-20T00:18:29.841Z,7.03
2023-03-20T00:20:56.478Z,7.27
2023-03-20T00:23:23.098Z,6.90
2023-03-20T00:26:00.254Z,7.17
2023-03-20T00:28:41.881Z,7.00
2023-03-20T00:31:17.646Z,7.33
2023-03-20T00:33:44.926Z,8.07
2023-03-20T00:36:11.587Z,6.50
2023-03-20T00:38:38.208Z,7.83
2023-03-20T00:41:23.612Z,7.40
2023-03-20T00:43:56.390Z,5.67
2023-03-20T00:46:26.875Z,6.37
2023-03-20T00:48:54.315Z,6.80
2023-03-20T00:51:21.035Z,6.67
2023-03-20T00:53:51.887Z,5.90
2023-03-20T00:56:32.112Z,6.63
2023-03-20T00:59:00.022Z,5.77
2023-03-20T01:01:26.943Z,4.93
2023-03-20T01:03:53.625Z,5.30
2023-03-20T01:06:20.620Z,6.47
2023-03-20T01:08:58.994Z,6.10
2023-03-20T01:11:35.152Z,7.53
2023-03-20T01:14:08.882Z,7.10
2023-03-20T01:16:38.679Z,6.67
2023-03-20T01:19:05.578Z,6.33
2023-03-20T01:21:32.316Z,6.50
2023-03-20T01:24:07.980Z,6.93
2023-03-20T01:26:40.220Z,7.00
2023-03-20T01:29:18.001Z,6.77
2023-03-20T01:31:46.470Z,5.90
2023-03-20T01:34:13.232Z,6.90
2023-03-20T01:36:49.998Z,7.50
2023-03-20T01:39:21.669Z,6.80
2023-03-20T01:41:51.304Z,7.73
2023-03-20T01:44:27.754Z,7.47
2023-03-20T01:46:55.127Z,6.70
2023-03-20T01:50:06.089Z,7.13
2023-03-20T01:52:32.784Z,6.53
2023-03-20T01:55:03.317Z,7.37
2023-03-20T01:57:30.765Z,7.97
2023-03-20T02:00:05.212Z,6.57
2023-03-20T02:02:34.673Z,7.13
2023-03-20T02:05:06.666Z,6.93
2023-03-20T02:07:35.109Z,7.33
2023-03-20T02:10:03.219Z,6.83
2023-03-20T02:12:31.159Z,6.93
2023-03-20T02:14:58.049Z,6.60
2023-03-20T02:17:27.667Z,6.03
2023-03-20T02:20:05.908Z,6.73
2023-03-20T02:23:11.298Z,6.20
2023-03-20T02:26:13.734Z,6.10
2023-03-20T02:29:21.873Z,6.97
2023-03-20T02:32:27.539Z,6.53
2023-03-20T02:35:28.102Z,7.30
2023-03-20T02:38:19.085Z,6.83
2023-03-20T02:40:52.981Z,6.60
2023-03-20T02:43:25.450Z,6.60
2023-03-20T02:45:57.926Z,6.47
2023-03-20T02:48:33.022Z,6.80
2023-03-20T02:51:04.312Z,6.27
2023-03-20T02:53:42.659Z,6.57
2023-03-20T02:56:29.478Z,6.50
2023-03-20T02:59:06.948Z,6.60
2023-03-20T03:01:39.296Z,6.70
2023-03-20T03:04:23.027Z,6.20
2023-03-20T03:06:55.082Z,6.97
2023-03-20T03:09:26.353Z,6.93
2023-03-20T03:11:56.602Z,7.37
2023-03-20T03:14:35.292Z,6.27
2023-03-20T03:17:05.667Z,7.23
2023-03-20T03:19:41.165Z,7.50
2023-03-20T03:22:08.056Z,7.40
2023-03-20T03:24:46.457Z,6.63
2023-03-20T03:27:21.079Z,6.77
2023-03-20T03:29:53.188Z,6.43
2023-03-20T03:32:30.325Z,6.33
2023-03-20T03:35:04.826Z,6.53
2023-03-20T03:37:43.854Z,7.90
2023-03-20T03:40:19.317Z,7.37
2023-03-20T03:42:56.940Z,7.53
2023-03-20T03:45:30.337Z,7.23
2023-03-20T03:48:20.026Z,7.70
2023-03-20T03:50:51.396Z,7.60
2023-03-20T03:53:22.357Z,7.70
2023-03-20T03:55:57.962Z,7.67
2023-03-20T03:58:29.032Z,7.17
2023-03-20T04:00:58.962Z,7.40
2023-03-20T04:03:32.908Z,8.43
2023-03-20T04:06:05.858Z,7.40
2023-03-20T04:08:34.009Z,7.37
2023-03-20T04:11:04.355Z,7.60
2023-03-20T04:13:30.990Z,8.17
2023-03-20T04:16:10.966Z,8.37
2023-03-20T04:18:37.635Z,9.53
2023-03-20T04:21:07.645Z,9.23
2023-03-20T04:23:34.413Z,9.13
2023-03-20T04:26:11.449Z,9.57
2023-03-20T04:28:38.215Z,9.57
2023-03-20T04:31:05.308Z,10.70
2023-03-20T04:33:31.965Z,10.20
2023-03-20T04:36:01.606Z,12.20
2023-03-20T04:38:28.243Z,11.33
2023-03-20T04:40:57.947Z,11.23
2023-03-20T04:43:25.493Z,11.43
2023-03-20T04:46:01.153Z,11.43
2023-03-20T04:48:27.986Z,12.60
2023-03-20T04:50:54.723Z,12.80
2023-03-20T04:53:27.542Z,12.47
2023-03-20T04:56:01.921Z,13.37
2023-03-20T04:58:29.542Z,14.23
2023-03-20T05:00:59.283Z,13.70
2023-03-20T05:03:31.553Z,14.37
2023-03-20T05:05:58.674Z,14.17
2023-03-20T05:08:28.678Z,14.93
2023-03-20T05:10:55.317Z,13.10
2023-03-20T05:13:25.960Z,12.93
2023-03-20T05:15:53.250Z,13.87
2023-03-20T05:18:20.253Z,12.90
2023-03-20T05:20:49.433Z,13.53
2023-03-20T05:23:21.970Z,13.37
2023-03-20T05:25:48.558Z,13.07
2023-03-20T05:28:15.333Z,13.47
2023-03-20T05:30:42.056Z,12.20
2023-03-20T05:33:15.164Z,12.27
2023-03-20T05:35:47.609Z,13.23
2023-03-20T05:38:14.395Z,12.67
2023-03-20T05:40:52.337Z,12.17
2023-03-20T05:43:18.920Z,12.90
2023-03-20T05:45:47.206Z,13.07
2023-03-20T05:48:14.777Z,12.67
2023-03-20T05:50:44.379Z,13.30
2023-03-20T05:53:11.134Z,12.23
2023-03-20T05:55:46.793Z,12.60
2023-03-20T05:58:13.461Z,13.03
2023-03-20T06:00:40.232Z,13.87
2023-03-20T06:06:29.298Z,14.67
2023-03-20T06:09:43.070Z,15.03
2023-03-20T06:12:10.406Z,15.57
2023-03-20T06:14:37.060Z,15.30
2023-03-20T06:17:03.697Z,16.40
2023-03-20T06:19:40.118Z,17.97
2023-03-20T06:22:12.502Z,18.33
2023-03-20T06:24:41.949Z,18.63
2023-03-20T06:27:15.176Z,18.47
2023-03-20T06:29:41.716Z,20.23
2023-03-20T06:32:16.803Z,23.83
2023-03-20T06:34:47.718Z,24.97
2023-03-20T06:37:14.682Z,29.40
2023-03-20T06:39:41.446Z,29.13
2023-03-20T06:45:05.971Z,27.83
2023-03-20T06:47:32.574Z,29.17
2023-03-20T06:49:59.839Z,25.17
2023-03-20T06:52:29.140Z,25.27
2023-03-20T06:55:08.949Z,26.27
2023-03-20T06:57:35.592Z,24.60
2023-03-20T07:00:07.178Z,18.33
2023-03-20T07:02:33.909Z,25.80
2023-03-20T07:05:08.429Z,25.47
2023-03-20T07:07:35.362Z,27.93
2023-03-20T07:10:03.754Z,28.87
2023-03-20T07:12:30.397Z,29.57
2023-03-20T07:15:07.197Z,29.77
2023-03-20T07:17:36.830Z,30.40
2023-03-20T07:20:10.789Z,33.23
2023-03-20T07:22:37.452Z,35.37
2023-03-20T07:25:11.250Z,35.47
2023-03-20T07:27:40.940Z,36.60
2023-03-20T07:30:08.883Z,37.40
2023-03-20T07:32:37.661Z,37.30
2023-03-20T07:35:04.963Z,43.43
2023-03-20T07:37:41.100Z,39.43
2023-03-20T07:40:09.038Z,41.97
2023-03-20T07:42:35.931Z,36.10
2023-03-20T07:45:03.341Z,30.93
2023-03-20T07:47:29.985Z,31.33
2023-03-20T07:50:08.523Z,33.27
2023-03-20T07:52:44.751Z,32.17
2023-03-20T07:55:11.994Z,37.80
2023-03-20T07:57:38.586Z,36.60
2023-03-20T08:00:09.792Z,34.07
2023-03-20T08:02:36.714Z,39.10
2023-03-20T08:05:03.476Z,37.07
2023-03-20T08:07:30.343Z,32.23
2023-03-20T08:09:57.157Z,28.80
2023-03-20T08:12:24.570Z,27.57
2023-03-20T08:14:51.540Z,29.23
2023-03-20T08:17:21.224Z,30.70
2023-03-20T08:19:54.946Z,28.87
2023-03-20T08:22:21.558Z,27.70
2023-03-20T08:24:48.347Z,28.73
2023-03-20T08:27:14.953Z,27.67
2023-03-20T08:29:44.934Z,27.17
2023-03-20T08:32:17.819Z,26.10
2023-03-20T08:34:44.746Z,27.90
2023-03-20T08:37:13.596Z,29.97
2023-03-20T08:39:40.598Z,28.13
2023-03-20T08:42:14.979Z,29.13
2023-03-20T08:44:45.342Z,26.00
2023-03-20T08:47:12.170Z,26.47
2023-03-20T08:49:39.002Z,25.33
2023-03-20T08:52:06.301Z,26.57
2023-03-20T08:54:33.602Z,28.93
2023-03-20T08:57:06.153Z,28.90
2023-03-20T09:02:27.914Z,29.63
2023-03-20T09:04:58.061Z,28.60
2023-03-20T09:07:42.943Z,27.83
2023-03-20T09:10:11.188Z,26.27
2023-03-20T09:12:43.742Z,21.87
2023-03-20T09:15:11.183Z,20.53
2023-03-20T09:17:44.572Z,23.97
2023-03-20T09:20:11.934Z,21.67
2023-03-20T09:22:40.407Z,25.33
2023-03-20T09:25:08.386Z,22.43
2023-03-20T09:27:44.591Z,22.67
2023-03-20T09:30:12.428Z,20.63
2023-03-20T09:32:48.238Z,19.33
2023-03-20T09:35:15.398Z,16.43
2023-03-20T09:37:44.964Z,19.87
2023-03-20T09:40:23.733Z,17.93
2023-03-20T09:42:57.218Z,18.60
2023-03-20T09:45:35.941Z,18.30
2023-03-20T09:48:07.049Z,17.40
2023-03-20T09:50:38.400Z,16.40
2023-03-20T09:53:10.009Z,14.37
2023-03-20T09:55:42.275Z,16.07
2023-03-20T09:58:18.715Z,14.70
2023-03-20T10:00:46.257Z,16.37
2023-03-20T10:03:19.523Z,14.50
2023-03-20T10:05:55.748Z,13.50
2023-03-20T10:08:28.079Z,15.97
2023-03-20T10:11:06.457Z,15.60
2023-03-20T10:14:02.176Z,14.33
2023-03-20T10:16:51.016Z,14.97
2023-03-20T10:19:23.409Z,13.47
2023-03-20T10:22:03.991Z,14.70
2023-03-20T10:24:35.825Z,11.53
2023-03-20T10:27:07.589Z,12.67
2023-03-20T10:29:45.512Z,12.63
2023-03-20T10:32:18.968Z,11.63
2023-03-20T10:35:09.126Z,11.90
2023-03-20T10:37:50.978Z,9.93
2023-03-20T10:40:26.049Z,11.47
2023-03-20T10:42:55.734Z,11.23
2023-03-20T10:45:37.086Z,10.47
2023-03-20T10:48:13.148Z,10.17
2023-03-20T10:50:44.844Z,11.60
2023-03-20T10:53:29.005Z,10.83
2023-03-20T10:55:59.596Z,10.47
2023-03-20T10:58:35.077Z,9.73
2023-03-20T11:01:02.870Z,8.70
2023-03-20T11:03:32.321Z,10.77
2023-03-20T11:06:09.662Z,10.17
2023-03-20T11:08:45.900Z,9.70
2023-03-20T11:11:12.472Z,9.63
2023-03-20T11:13:41.902Z,9.27
2023-03-20T11:16:18.925Z,9.77
2023-03-20T11:18:52.007Z,9.73
2023-03-20T11:21:23.065Z,9.27
2023-03-20T11:23:50.294Z,9.83
2023-03-20T11:26:35.900Z,11.53
2023-03-20T11:29:05.089Z,10.43
2023-03-20T11:31:35.538Z,10.13
2023-03-20T11:34:19.369Z,8.93
2023-03-20T11:37:09.211Z,8.97
2023-03-20T11:39:59.006Z,10.23
2023-03-20T11:42:27.907Z,9.20
2023-03-20T11:45:02.555Z,10.03
2023-03-20T11:47:33.451Z,9.23
2023-03-20T11:50:08.756Z,10.30
2023-03-20T11:52:43.475Z,8.33
2023-03-20T11:55:27.084Z,9.90
2023-03-20T11:57:57.520Z,9.27
2023-03-20T12:00:38.163Z,9.80
2023-03-20T12:03:36.779Z,9.20
2023-03-20T12:06:09.473Z,8.13
2023-03-20T12:08:42.807Z,10.40
2023-03-20T12:11:34.152Z,10.00
2023-03-20T12:14:13.645Z,8.57
2023-03-20T12:16:47.932Z,9.93
2023-03-20T12:19:18.839Z,10.47
2023-03-20T12:21:49.891Z,10.53
2023-03-20T12:24:36.456Z,9.47
2023-03-20T12:27:23.865Z,10.10
2023-03-20T12:29:55.699Z,10.33
2023-03-20T12:32:30.664Z,8.73
2023-03-20T12:35:02.154Z,9.60
2023-03-20T12:37:50.354Z,10.30
2023-03-20T12:40:19.771Z,8.13
2023-03-20T12:43:04.116Z,10.43
2023-03-20T12:45:38.282Z,10.63
2023-03-20T12:48:32.405Z,10.53
2023-03-20T12:51:13.798Z,10.87
2023-03-20T12:53:52.738Z,10.73
2023-03-20T12:56:30.263Z,10.30
2023-03-20T12:59:03.576Z,9.63
2023-03-20T13:01:32.368Z,10.43
2023-03-20T13:04:28.047Z,10.93
2023-03-20T13:06:58.672Z,11.40
2023-03-20T13:09:56.724Z,11.37
2023-03-20T13:12:34.585Z,11.33
2023-03-20T13:15:19.665Z,10.50
2023-03-20T13:17:53.197Z,10.47
2023-03-20T13:20:26.691Z,11.13
2023-03-20T13:23:10.437Z,12.70
2023-03-20T13:26:13.255Z,12.20
2023-03-20T13:28:53.028Z,11.93
2023-03-20T13:31:42.111Z,11.87
2023-03-20T13:34:20.680Z,12.03
2023-03-20T13:37:16.076Z,12.50
2023-03-20T13:39:51.932Z,12.27
2023-03-20T13:42:22.938Z,11.70
2023-03-20T13:45:09.458Z,13.30
2023-03-20T13:47:37.610Z,12.13
2023-03-20T13:50:27.773Z,13.07
2023-03-20T13:53:04.029Z,13.57
2023-03-20T13:55:45.619Z,12.87
2023-03-20T13:58:36.357Z,13.47
2023-03-20T14:01:08.111Z,13.80
2023-03-20T14:03:37.371Z,14.70
2023-03-20T14:06:18.048Z,15.53
2023-03-20T14:08:49.233Z,15.77
2023-03-20T14:11:34.803Z,14.67
2023-03-20T14:14:08.764Z,15.50
2023-03-20T14:16:36.167Z,14.33
2023-03-20T14:19:17.798Z,13.97
2023-03-20T14:21:48.959Z,14.87
2023-03-20T14:24:18.916Z,14.43
2023-03-20T14:26:58.837Z,15.67
2023-03-20T14:29:34.033Z,14.70
2023-03-20T14:32:37.058Z,15.87
2023-03-20T14:35:24.244Z,15.30
2023-03-20T14:38:23.696Z,14.23
2023-03-20T14:41:04.823Z,16.20
2023-03-20T14:43:45.224Z,14.37
2023-03-20T14:46:31.113Z,16.10
2023-03-20T14:49:26.911Z,13.90
2023-03-20T14:52:00.116Z,14.63
2023-03-20T14:54:34.593Z,15.07
2023-03-20T14:57:26.741Z,16.13
2023-03-20T14:59:57.474Z,16.37
2023-03-20T15:02:27.628Z,15.63
2023-03-20T15:04:55.266Z,16.80
2023-03-20T15:07:28.888Z,17.17
2023-03-20T15:09:59.344Z,15.23
2023-03-20T15:12:28.573Z,16.23
2023-03-20T15:14:57.918Z,16.17
2023-03-20T15:17:35.042Z,17.47
2023-03-20T15:20:06.465Z,16.60
2023-03-20T15:22:36.426Z,16.77
2023-03-20T15:25:04.025Z,16.40
2023-03-20T15:27:31.343Z,17.70
2023-03-20T15:30:05.296Z,16.53
2023-03-20T15:32:34.163Z,17.87
2023-03-20T15:35:03.732Z,18.30
2023-03-20T15:37:30.384Z,17.63
2023-03-20T15:39:59.596Z,15.90
2023-03-20T15:42:33.136Z,16.60
2023-03-20T15:45:13.890Z,17.87
2023-03-20T15:47:42.477Z,17.33
2023-03-20T15:50:13.312Z,17.40
2023-03-20T15:52:43.146Z,16.67
2023-03-20T15:55:25.109Z,17.80
2023-03-20T15:57:55.903Z,16.43
2023-03-20T16:00:31.107Z,16.97
2023-03-20T16:02:59.811Z,17.43
2023-03-20T16:05:28.777Z,18.57
2023-03-20T16:07:57.391Z,17.80
2023-03-20T16:10:30.936Z,18.97
2023-03-20T16:13:01.653Z,18.27
2023-03-20T16:15:30.939Z,17.83
2023-03-20T16:18:10.133Z,16.20
2023-03-20T16:20:41.314Z,18.57
2023-03-20T16:23:09.328Z,15.30
2023-03-20T16:25:40.726Z,16.43
2023-03-20T16:28:09.084Z,16.17
2023-03-20T16:30:36.323Z,17.67
2023-03-20T16:33:17.040Z,16.33
2023-03-20T16:35:49.272Z,15.87
2023-03-20T16:38:23.133Z,16.03
2023-03-20T16:40:54.290Z,15.97
2023-03-20T16:43:34.048Z,16.40
2023-03-20T16:46:07.123Z,16.43
2023-03-20T16:48:34.937Z,15.83
2023-03-20T16:51:16.221Z,16.87
2023-03-20T16:53:49.904Z,16.33
2023-03-20T16:56:21.809Z,16.43
2023-03-20T16:58:51.651Z,15.77
2023-03-20T17:01:20.888Z,16.70
2023-03-20T17:03:55.100Z,15.90
2023-03-20T17:06:41.848Z,17.67
2023-03-20T17:09:23.125Z,16.27
2023-03-20T17:11:56.470Z,16.37
2023-03-20T17:14:26.350Z,16.10
2023-03-20T17:16:57.999Z,16.07
2023-03-20T17:19:25.145Z,16.70
2023-03-20T17:21:51.842Z,16.13
2023-03-20T17:24:18.728Z,16.27
2023-03-20T17:26:51.795Z,15.87
2023-03-20T17:29:27.619Z,17.63
2023-03-20T17:31:54.487Z,16.70
2023-03-20T17:34:24.239Z,18.20
2023-03-20T17:36:51.976Z,16.57
2023-03-20T17:39:20.662Z,17.87
2023-03-20T17:41:48.143Z,17.33
2023-03-20T17:44:14.884Z,19.13
2023-03-20T17:47:00.568Z,17.27
2023-03-20T17:49:28.045Z,17.10
2023-03-20T17:51:55.440Z,16.70
2023-03-20T17:54:22.136Z,18.53
2023-03-20T17:56:57.480Z,16.93
2023-03-20T17:59:30.582Z,17.23
2023-03-20T18:01:58.008Z,17.27
2023-03-20T18:04:26.123Z,16.97
2023-03-20T18:06:52.858Z,18.63
2023-03-20T18:09:20.101Z,18.57
2023-03-20T18:11:46.830Z,19.57
2023-03-20T18:14:21.105Z,18.43
2023-03-20T18:16:47.780Z,18.30
2023-03-20T18:19:29.161Z,20.27
2023-03-20T18:21:56.971Z,17.63
2023-03-20T18:24:23.862Z,18.97
2023-03-20T18:26:51.430Z,18.70
2023-03-20T18:29:18.404Z,18.93
2023-03-20T18:31:47.701Z,16.73
2023-03-20T18:34:14.557Z,17.30
2023-03-20T18:36:51.184Z,18.87
2023-03-20T18:39:18.972Z,17.83
2023-03-20T18:41:49.125Z,18.67
2023-03-20T18:44:21.725Z,16.57
2023-03-20T18:46:48.642Z,17.27
2023-03-20T18:49:19.973Z,16.07
2023-03-20T18:51:47.785Z,16.83
2023-03-20T18:54:14.526Z,16.53
2023-03-20T18:56:42.286Z,17.07
2023-03-20T18:59:24.392Z,18.23
2023-03-20T19:01:56.581Z,16.67
2023-03-20T19:04:23.467Z,17.97
2023-03-20T19:06:50.836Z,16.70
2023-03-20T19:09:21.051Z,17.47
2023-03-20T19:11:48.062Z,16.20
2023-03-20T19:14:17.939Z,17.10
2023-03-20T19:16:46.138Z,16.60
2023-03-20T19:19:15.498Z,17.47
2023-03-20T19:21:45.444Z,15.60
2023-03-20T19:24:12.835Z,16.43
2023-03-20T19:26:47.691Z,18.50
2023-03-20T19:29:15.099Z,17.80
2023-03-20T19:31:45.396Z,16.93
2023-03-20T19:34:44.537Z,16.47
2023-03-20T19:37:02.179Z,18.70
2023-03-20T19:39:29.620Z,20.87
2023-03-20T19:42:15.416Z,16.23
2023-03-20T19:44:45.625Z,19.83
2023-03-20T19:47:12.831Z,17.63
2023-03-20T19:49:40.120Z,17.87
2023-03-20T19:52:20.491Z,17.53
2023-03-20T19:55:01.779Z,17.17
2023-03-20T19:57:32.834Z,16.60
2023-03-20T20:02:51.330Z,17.93
2023-03-20T20:05:31.788Z,17.03
2023-03-20T20:08:24.014Z,18.17
2023-03-20T20:10:50.155Z,17.53
2023-03-20T20:13:19.222Z,17.50
2023-03-20T20:15:48.348Z,17.50
2023-03-20T20:18:16.143Z,17.80
2023-03-20T20:21:34.570Z,17.73
2023-03-20T20:23:37.730Z,18.07
2023-03-20T20:26:07.576Z,17.67
2023-03-20T20:28:34.484Z,17.37
2023-03-20T20:31:07.240Z,17.40
2023-03-20T20:33:35.513Z,17.43
2023-03-20T20:37:08.355Z,18.27
2023-03-20T20:39:04.425Z,17.60
2023-03-20T20:41:38.043Z,15.93
2023-03-20T20:44:15.660Z,16.67
2023-03-20T20:46:43.502Z,17.27
2023-03-20T20:49:19.192Z,15.07
2023-03-20T20:51:53.199Z,14.93
2023-03-20T20:54:21.056Z,12.87
2023-03-20T20:56:54.905Z,13.33
2023-03-20T20:59:23.295Z,12.80
2023-03-20T21:01:56.672Z,13.10
2023-03-20T21:04:23.579Z,13.40
2023-03-20T21:07:11.888Z,12.17
2023-03-20T21:09:42.787Z,14.23
2023-03-20T21:12:34.837Z,12.73
2023-03-20T21:15:05.434Z,13.00
2023-03-20T21:17:33.712Z,11.57
2023-03-20T21:20:01.207Z,10.87
2023-03-20T21:22:32.330Z,11.80
2023-03-20T21:25:13.365Z,12.37
2023-03-20T21:27:46.302Z,10.93
2023-03-20T21:30:15.760Z,10.70
2023-03-20T21:32:44.240Z,11.13
2023-03-20T21:35:13.493Z,10.07
2023-03-20T21:40:37.244Z,10.63
2023-03-20T21:43:05.085Z,10.60
2023-03-20T21:49:19.063Z,10.83
2023-03-20T21:52:14.736Z,10.53
2023-03-20T21:54:56.889Z,11.50
2023-03-20T21:57:30.642Z,11.10
2023-03-20T22:02:32.173Z,11.03
2023-03-20T22:08:28.184Z,10.60
2023-03-20T22:11:31.598Z,11.37
2023-03-20T22:14:22.326Z,10.30
2023-03-20T22:17:25.866Z,11.30
2023-03-20T22:22:50.484Z,10.17
2023-03-20T22:31:10.740Z,10.07
2023-03-20T22:36:39.976Z,10.60
2023-03-20T22:39:19.066Z,10.87
2023-03-20T22:47:02.896Z,9.40
2023-03-20T22:49:35.957Z,9.23
2023-03-20T22:52:19.556Z,9.40
2023-03-20T22:54:49.928Z,9.50
2023-03-20T22:57:19.818Z,9.50
2023-03-20T23:00:00.155Z,8.30
2023-03-20T23:02:26.869Z,8.73
2023-03-20T23:04:54.277Z,8.57
2023-03-20T23:07:21.400Z,8.13
2023-03-20T23:09:48.162Z,7.73
2023-03-20T23:12:26.287Z,8.17
2023-03-20T23:14:56.994Z,7.50
2023-03-20T23:17:26.793Z,7.27
2023-03-20T23:20:08.703Z,7.57
2023-03-20T23:22:38.087Z,7.80
2023-03-20T23:25:18.688Z,7.30
2023-03-20T23:27:54.371Z,7.40
2023-03-20T23:30:23.424Z,8.13
2023-03-20T23:32:52.082Z,7.87
2023-03-20T23:35:34.032Z,8.20
2023-03-20T23:38:00.664Z,7.20
2023-03-20T23:40:27.327Z,8.47
2023-03-20T23:43:00.035Z,9.67
2023-03-20T23:45:27.194Z,8.80
2023-03-20T23:47:53.889Z,8.13
2023-03-20T23:50:30.055Z,8.10
2023-03-20T23:53:09.593Z,8.60
2023-03-20T23:55:50.206Z,8.03
2023-03-20T23:58:17.102Z,8.97
